Manchester, California
Current Conditions -  °F | °C
As of 12:56 AM on Saturday 25 Oct 2014 (Local Time) from KUKI Reporting Station
Overcast Overcast  
Wind Chill: 61°   Ceiling: 2600
Heat Index: 61°   Visibility: 10mi
Dew Point: 54°   Wind: 12mph
Humidity: 78%   Direction: 140°SE
Pressure: 29.83"   Gusts: 21mph
Location:  38.97°N, 123.69°W
Report Text: KUKI 250756Z AUTO 14010G18KT 10SM OVC026 16/12 A2983 RMK AO2 RAB31E47 SLP095 P0000 T01610122 402280122
Loading
Personal Weather Stations






























Interactive Weather Map
Tropical Storm Tracking
New forecast layout! Learn more

10-Day Weather Forecast

Advertisements
Track Severe Weather on mobile